sensor_id;sensor_type;location;lat;lon;timestamp;pressure;altitude;pressure_sealevel;temperature;humidity
3968;BME280;9221;42.646;23.380;2022-09-06T00:00:12;95203.78;;;16.05;84.67
3968;BME280;9221;42.646;23.380;2022-09-06T00:02:39;95271.22;;;16.45;84.37
3968;BME280;9221;42.646;23.380;2022-09-06T00:05:05;95279.59;;;16.34;84.40
3968;BME280;9221;42.646;23.380;2022-09-06T00:07:31;95206.09;;;16.16;84.11
3968;BME280;9221;42.646;23.380;2022-09-06T00:09:57;95265.91;;;16.45;83.86
3968;BME280;9221;42.646;23.380;2022-09-06T00:12:23;95263.56;;;16.50;84.05
3968;BME280;9221;42.646;23.380;2022-09-06T00:14:49;95264.22;;;16.52;83.71
3968;BME280;9221;42.646;23.380;2022-09-06T00:17:15;95324.13;;;16.48;83.83
3968;BME280;9221;42.646;23.380;2022-09-06T00:19:41;95265.56;;;16.48;83.98
3968;BME280;9221;42.646;23.380;2022-09-06T00:22:06;95207.38;;;16.29;83.72
3968;BME280;9221;42.646;23.380;2022-09-06T00:24:32;95289.16;;;16.76;82.68
3968;BME280;9221;42.646;23.380;2022-09-06T00:26:57;95305.94;;;16.77;82.17
3968;BME280;9221;42.646;23.380;2022-09-06T00:29:22;95195.72;;;16.38;82.72
3968;BME280;9221;42.646;23.380;2022-09-06T00:31:48;95202.72;;;16.39;82.10
3968;BME280;9221;42.646;23.380;2022-09-06T00:34:13;95268.56;;;16.53;82.33
3968;BME280;9221;42.646;23.380;2022-09-06T00:36:39;95105.56;;;15.70;83.11
3968;BME280;9221;42.646;23.380;2022-09-06T00:39:04;95241.09;;;16.53;83.13
3968;BME280;9221;42.646;23.380;2022-09-06T00:41:30;95269.91;;;16.41;83.54
3968;BME280;9221;42.646;23.380;2022-09-06T00:43:55;95251.28;;;16.41;84.02
3968;BME280;9221;42.646;23.380;2022-09-06T00:46:27;95253.44;;;16.54;83.41
3968;BME280;9221;42.646;23.380;2022-09-06T00:49:03;95290.50;;;16.64;82.69
3968;BME280;9221;42.646;23.380;2022-09-06T00:51:30;95244.28;;;16.40;83.04
3968;BME280;9221;42.646;23.380;2022-09-06T00:54:01;95311.19;;;16.29;83.57
3968;BME280;9221;42.646;23.380;2022-09-06T00:56:28;95195.47;;;16.08;83.68
3968;BME280;9221;42.646;23.380;2022-09-06T00:58:54;95234.03;;;16.20;83.85
3968;BME280;9221;42.646;23.380;2022-09-06T01:01:19;95277.28;;;16.22;84.49
3968;BME280;9221;42.646;23.380;2022-09-06T01:03:44;95267.78;;;16.20;84.83
3968;BME280;9221;42.646;23.380;2022-09-06T01:06:20;95291.25;;;16.16;84.85
3968;BME280;9221;42.646;23.380;2022-09-06T01:09:33;95257.44;;;16.33;84.33
3968;BME280;9221;42.646;23.380;2022-09-06T01:32:34;95210.91;;;15.71;84.82
3968;BME280;9221;42.646;23.380;2022-09-06T01:35:24;95189.81;;;15.62;84.68
3968;BME280;9221;42.646;23.380;2022-09-06T01:37:51;95210.44;;;15.68;85.01
3968;BME280;9221;42.646;23.380;2022-09-06T01:40:17;95182.84;;;15.61;85.23
3968;BME280;9221;42.646;23.380;2022-09-06T01:42:45;95250.66;;;16.06;84.93
3968;BME280;9221;42.646;23.380;2022-09-06T01:45:19;95190.16;;;15.59;84.83
3968;BME280;9221;42.646;23.380;2022-09-06T01:47:58;95277.94;;;16.00;84.86
3968;BME280;9221;42.646;23.380;2022-09-06T01:54:05;95233.72;;;15.99;84.96
3968;BME280;9221;42.646;23.380;2022-09-06T02:04:50;95210.44;;;15.68;85.79
3968;BME280;9221;42.646;23.380;2022-09-06T02:07:21;95229.09;;;15.84;85.82
3968;BME280;9221;42.646;23.380;2022-09-06T02:09:54;95202.78;;;15.73;85.14
3968;BME280;9221;42.646;23.380;2022-09-06T02:12:23;95235.38;;;15.83;85.44
3968;BME280;9221;42.646;23.380;2022-09-06T02:14:55;95208.44;;;15.62;85.79
3968;BME280;9221;42.646;23.380;2022-09-06T02:17:26;95230.38;;;15.64;85.99
3968;BME280;9221;42.646;23.380;2022-09-06T02:20:44;95225.72;;;15.66;86.38
3968;BME280;9221;42.646;23.380;2022-09-06T02:22:44;95176.88;;;15.34;86.70
3968;BME280;9221;42.646;23.380;2022-09-06T02:25:18;95155.25;;;15.20;86.80
3968;BME280;9221;42.646;23.380;2022-09-06T02:27:46;95221.72;;;15.62;86.96
3968;BME280;9221;42.646;23.380;2022-09-06T02:30:11;95262.94;;;15.57;86.80
3968;BME280;9221;42.646;23.380;2022-09-06T02:32:45;95296.00;;;15.63;86.98
3968;BME280;9221;42.646;23.380;2022-09-06T02:35:14;95230.38;;;15.64;86.71
3968;BME280;9221;42.646;23.380;2022-09-06T02:37:41;95172.53;;;15.25;86.68
3968;BME280;9221;42.646;23.380;2022-09-06T02:40:08;95234.03;;;15.71;86.22
3968;BME280;9221;42.646;23.380;2022-09-06T02:42:34;95227.03;;;15.78;86.20
3968;BME280;9221;42.646;23.380;2022-09-06T02:45:00;95218.41;;;15.76;85.89
3968;BME280;9221;42.646;23.380;2022-09-06T02:47:25;95318.66;;;15.92;85.30
3968;BME280;9221;42.646;23.380;2022-09-06T02:49:51;95233.53;;;16.08;84.95
3968;BME280;9221;42.646;23.380;2022-09-06T02:52:16;95237.22;;;15.99;84.48
3968;BME280;9221;42.646;23.380;2022-09-06T02:54:41;95195.47;;;15.59;84.80
3968;BME280;9221;42.646;23.380;2022-09-06T02:59:51;95229.69;;;15.70;85.73
3968;BME280;9221;42.646;23.380;2022-09-06T03:02:16;95262.63;;;15.94;85.52
3968;BME280;9221;42.646;23.380;2022-09-06T03:04:41;95267.47;;;15.90;85.17
3968;BME280;9221;42.646;23.380;2022-09-06T03:07:07;95264.09;;;15.63;86.64
3968;BME280;9221;42.646;23.380;2022-09-06T03:09:32;95169.38;;;15.21;87.05
3968;BME280;9221;42.646;23.380;2022-09-06T03:11:58;95240.66;;;15.50;87.43
3968;BME280;9221;42.646;23.380;2022-09-06T03:14:23;95166.19;;;15.01;88.20
3968;BME280;9221;42.646;23.380;2022-09-06T03:16:48;95160.88;;;14.84;88.88
3968;BME280;9221;42.646;23.380;2022-09-06T03:19:14;95227.00;;;15.29;89.00
3968;BME280;9221;42.646;23.380;2022-09-06T03:21:39;95214.34;;;15.14;89.38
3968;BME280;9221;42.646;23.380;2022-09-06T03:24:05;95215.88;;;15.25;88.96
3968;BME280;9221;42.646;23.380;2022-09-06T03:26:30;95240.16;;;15.47;88.75
3968;BME280;9221;42.646;23.380;2022-09-06T03:28:56;95240.84;;;15.57;88.08
3968;BME280;9221;42.646;23.380;2022-09-06T03:31:21;95228.38;;;15.49;87.73
3968;BME280;9221;42.646;23.380;2022-09-06T03:33:47;95235.84;;;15.54;88.23
3968;BME280;9221;42.646;23.380;2022-09-06T03:36:13;95217.72;;;15.49;87.86
3968;BME280;9221;42.646;23.380;2022-09-06T03:38:38;95224.88;;;15.40;87.81
3968;BME280;9221;42.646;23.380;2022-09-06T03:41:04;95296.97;;;15.54;87.88
3968;BME280;9221;42.646;23.380;2022-09-06T03:43:29;95232.19;;;15.55;87.63
3968;BME280;9221;42.646;23.380;2022-09-06T03:45:56;95256.63;;;15.75;87.49
3968;BME280;9221;42.646;23.380;2022-09-06T03:48:25;95290.25;;;16.01;86.67
3968;BME280;9221;42.646;23.380;2022-09-06T03:50:52;95274.94;;;16.03;85.60
3968;BME280;9221;42.646;23.380;2022-09-06T03:53:19;95183.69;;;15.61;85.40
3968;BME280;9221;42.646;23.380;2022-09-06T03:55:48;95252.69;;;15.87;86.29
3968;BME280;9221;42.646;23.380;2022-09-06T03:58:16;95259.97;;;15.85;86.36
3968;BME280;9221;42.646;23.380;2022-09-06T04:00:42;95288.75;;;15.82;86.76
3968;BME280;9221;42.646;23.380;2022-09-06T04:03:08;95190.13;;;15.17;87.20
3968;BME280;9221;42.646;23.380;2022-09-06T04:05:34;95275.59;;;15.64;87.41
3968;BME280;9221;42.646;23.380;2022-09-06T04:08:00;95233.03;;;15.72;86.78
3968;BME280;9221;42.646;23.380;2022-09-06T04:10:25;95231.22;;;15.81;86.28
3968;BME280;9221;42.646;23.380;2022-09-06T04:12:50;95257.00;;;16.05;85.49
3968;BME280;9221;42.646;23.380;2022-09-06T04:15:16;95290.91;;;16.03;85.64
3968;BME280;9221;42.646;23.380;2022-09-06T04:17:45;95222.72;;;15.69;85.51
3968;BME280;9221;42.646;23.380;2022-09-06T04:20:14;95283.28;;;16.00;85.54
3968;BME280;9221;42.646;23.380;2022-09-06T04:22:40;95256.66;;;16.08;85.83
3968;BME280;9221;42.646;23.380;2022-09-06T04:25:06;95263.28;;;16.20;85.12
3968;BME280;9221;42.646;23.380;2022-09-06T04:27:32;95198.16;;;15.92;84.12
3968;BME280;9221;42.646;23.380;2022-09-06T04:29:58;95202.63;;;15.99;83.79
3968;BME280;9221;42.646;23.380;2022-09-06T04:32:23;95274.25;;;16.34;83.92
3968;BME280;9221;42.646;23.380;2022-09-06T04:34:49;95266.72;;;16.46;83.61
3968;BME280;9221;42.646;23.380;2022-09-06T04:37:14;95286.38;;;16.45;83.50
3968;BME280;9221;42.646;23.380;2022-09-06T04:39:44;95300.34;;;16.47;83.34
3968;BME280;9221;42.646;23.380;2022-09-06T04:42:10;95246.19;;;16.06;83.22
3968;BME280;9221;42.646;23.380;2022-09-06T04:44:35;95264.56;;;16.57;83.16
3968;BME280;9221;42.646;23.380;2022-09-06T04:47:11;95202.06;;;16.29;82.73
3968;BME280;9221;42.646;23.380;2022-09-06T04:49:42;95244.25;;;16.48;82.78
3968;BME280;9221;42.646;23.380;2022-09-06T04:52:08;95295.13;;;16.70;82.36
3968;BME280;9221;42.646;23.380;2022-09-06T04:54:34;95227.47;;;16.48;82.54
3968;BME280;9221;42.646;23.380;2022-09-06T04:56:59;95202.03;;;16.37;82.87
3968;BME280;9221;42.646;23.380;2022-09-06T04:59:25;95269.34;;;16.70;82.73
3968;BME280;9221;42.646;23.380;2022-09-06T05:01:50;95210.69;;;16.47;82.38
3968;BME280;9221;42.646;23.380;2022-09-06T05:04:16;95267.13;;;16.82;82.60
3968;BME280;9221;42.646;23.380;2022-09-06T05:06:41;95238.34;;;16.78;82.36
3968;BME280;9221;42.646;23.380;2022-09-06T05:09:07;95268.16;;;16.89;82.29
3968;BME280;9221;42.646;23.380;2022-09-06T05:11:33;95256.63;;;16.97;82.52
3968;BME280;9221;42.646;23.380;2022-09-06T05:13:58;95188.63;;;16.62;82.01
3968;BME280;9221;42.646;23.380;2022-09-06T05:16:24;95247.22;;;17.09;81.96
3968;BME280;9221;42.646;23.380;2022-09-06T05:18:49;95254.72;;;17.14;81.63
3968;BME280;9221;42.646;23.380;2022-09-06T05:21:15;95258.66;;;17.27;81.08
3968;BME280;9221;42.646;23.380;2022-09-06T05:23:41;95248.28;;;17.32;80.77
3968;BME280;9221;42.646;23.380;2022-09-06T05:26:06;95215.19;;;17.18;80.10
3968;BME280;9221;42.646;23.380;2022-09-06T05:28:32;95243.88;;;17.47;79.57
3968;BME280;9221;42.646;23.380;2022-09-06T05:31:07;95251.44;;;17.58;79.36
3968;BME280;9221;42.646;23.380;2022-09-06T05:33:33;95265.44;;;17.61;79.24
3968;BME280;9221;42.646;23.380;2022-09-06T05:35:58;95233.78;;;17.57;79.00
3968;BME280;9221;42.646;23.380;2022-09-06T05:38:24;95236.75;;;17.63;78.80
3968;BME280;9221;42.646;23.380;2022-09-06T05:40:50;95249.19;;;17.70;78.92
3968;BME280;9221;42.646;23.380;2022-09-06T05:43:15;95250.97;;;17.78;78.64
3968;BME280;9221;42.646;23.380;2022-09-06T05:45:41;95250.97;;;17.78;78.21
3968;BME280;9221;42.646;23.380;2022-09-06T05:48:06;95140.50;;;17.03;78.18
3968;BME280;9221;42.646;23.380;2022-09-06T05:50:33;95240.59;;;17.83;78.03
3968;BME280;9221;42.646;23.380;2022-09-06T05:52:58;95254.94;;;17.59;77.23
3968;BME280;9221;42.646;23.380;2022-09-06T05:55:24;95283.22;;;17.68;77.87
3968;BME280;9221;42.646;23.380;2022-09-06T05:57:49;95252.25;;;17.82;77.46
3968;BME280;9221;42.646;23.380;2022-09-06T06:00:15;95254.59;;;17.85;76.81
3968;BME280;9221;42.646;23.380;2022-09-06T06:02:40;95189.56;;;17.40;77.81
3968;BME280;9221;42.646;23.380;2022-09-06T06:05:06;95198.84;;;17.52;77.84
3968;BME280;9221;42.646;23.380;2022-09-06T06:07:32;95249.53;;;17.67;77.64
3968;BME280;9221;42.646;23.380;2022-09-06T06:09:57;95166.81;;;17.06;78.57
3968;BME280;9221;42.646;23.380;2022-09-06T06:12:23;95171.56;;;17.42;78.03
3968;BME280;9221;42.646;23.380;2022-09-06T06:14:48;95248.22;;;17.63;77.74
3968;BME280;9221;42.646;23.380;2022-09-06T06:17:13;95234.38;;;17.91;77.29
3968;BME280;9221;42.646;23.380;2022-09-06T06:19:39;95228.91;;;18.07;77.72
3968;BME280;9221;42.646;23.380;2022-09-06T06:22:04;95221.84;;;18.30;76.19
3968;BME280;9221;42.646;23.380;2022-09-06T06:24:30;95253.91;;;18.44;75.99
3968;BME280;9221;42.646;23.380;2022-09-06T06:26:55;95255.75;;;18.74;75.36
3968;BME280;9221;42.646;23.380;2022-09-06T06:29:21;95238.38;;;18.93;74.20
3968;BME280;9221;42.646;23.380;2022-09-06T06:31:46;95229.03;;;19.04;73.27
3968;BME280;9221;42.646;23.380;2022-09-06T06:34:11;95191.91;;;18.94;73.16
3968;BME280;9221;42.646;23.380;2022-09-06T06:36:37;95232.44;;;19.27;72.49
3968;BME280;9221;42.646;23.380;2022-09-06T06:39:05;95226.91;;;19.14;72.49
3968;BME280;9221;42.646;23.380;2022-09-06T06:41:32;95228.81;;;19.20;72.62
3968;BME280;9221;42.646;23.380;2022-09-06T06:44:00;95246.22;;;19.31;72.64
3968;BME280;9221;42.646;23.380;2022-09-06T06:46:34;95206.91;;;19.10;72.40
3968;BME280;9221;42.646;23.380;2022-09-06T06:49:00;95178.13;;;18.60;73.06
3968;BME280;9221;42.646;23.380;2022-09-06T06:51:29;95251.78;;;18.85;73.56
3968;BME280;9221;42.646;23.380;2022-09-06T06:53:55;95171.88;;;18.23;74.12
3968;BME280;9221;42.646;23.380;2022-09-06T06:58:53;95217.53;;;19.03;73.41
3968;BME280;9221;42.646;23.380;2022-09-06T07:01:20;95257.06;;;19.08;72.41
3968;BME280;9221;42.646;23.380;2022-09-06T07:03:46;95178.75;;;18.92;72.96
3968;BME280;9221;42.646;23.380;2022-09-06T07:06:13;95237.41;;;19.52;72.51
3968;BME280;9221;42.646;23.380;2022-09-06T07:08:39;95230.34;;;19.66;71.98
3968;BME280;9221;42.646;23.380;2022-09-06T07:11:07;95175.03;;;19.52;71.19
3968;BME280;9221;42.646;23.380;2022-09-06T07:13:34;95225.91;;;19.95;69.79
3968;BME280;9221;42.646;23.380;2022-09-06T07:16:11;95243.34;;;20.12;69.01
3968;BME280;9221;42.646;23.380;2022-09-06T07:18:38;95244.56;;;20.10;69.80
3968;BME280;9221;42.646;23.380;2022-09-06T07:21:16;95245.81;;;20.36;68.84
3968;BME280;9221;42.646;23.380;2022-09-06T07:23:43;95242.88;;;20.31;67.67
3968;BME280;9221;42.646;23.380;2022-09-06T07:26:13;95238.38;;;20.38;67.25
3968;BME280;9221;42.646;23.380;2022-09-06T07:28:39;95215.22;;;20.58;67.08
3968;BME280;9221;42.646;23.380;2022-09-06T07:31:05;95280.38;;;21.29;65.98
3968;BME280;9221;42.646;23.380;2022-09-06T07:33:30;95247.50;;;21.69;64.91
3968;BME280;9221;42.646;23.380;2022-09-06T07:35:56;95282.91;;;22.06;63.05
3968;BME280;9221;42.646;23.380;2022-09-06T07:38:22;95244.69;;;22.37;61.09
3968;BME280;9221;42.646;23.380;2022-09-06T07:40:59;95270.31;;;22.67;60.65
3968;BME280;9221;42.646;23.380;2022-09-06T07:43:25;95237.59;;;22.96;59.67
3968;BME280;9221;42.646;23.380;2022-09-06T07:46:07;95293.63;;;22.99;58.22
3968;BME280;9221;42.646;23.380;2022-09-06T07:48:35;95199.56;;;22.66;58.20
3968;BME280;9221;42.646;23.380;2022-09-06T07:51:04;95302.38;;;22.75;58.14
3968;BME280;9221;42.646;23.380;2022-09-06T07:53:30;95191.34;;;22.01;58.96
3968;BME280;9221;42.646;23.380;2022-09-06T07:55:56;95267.41;;;22.28;59.20
3968;BME280;9221;42.646;23.380;2022-09-06T07:58:21;95250.88;;;22.11;59.08
3968;BME280;9221;42.646;23.380;2022-09-06T08:00:47;95197.97;;;21.91;58.45
3968;BME280;9221;42.646;23.380;2022-09-06T08:03:12;95205.41;;;21.89;58.87
3968;BME280;9221;42.646;23.380;2022-09-06T08:05:38;95182.28;;;22.35;58.78
3968;BME280;9221;42.646;23.380;2022-09-06T08:08:03;95235.00;;;23.28;56.47
3968;BME280;9221;42.646;23.380;2022-09-06T08:10:29;95192.88;;;22.95;55.65
3968;BME280;9221;42.646;23.380;2022-09-06T08:12:54;95228.44;;;23.04;56.24
3968;BME280;9221;42.646;23.380;2022-09-06T08:15:20;95252.03;;;23.15;55.38
3968;BME280;9221;42.646;23.380;2022-09-06T08:17:49;95229.84;;;23.65;55.28
3968;BME280;9221;42.646;23.380;2022-09-06T08:20:15;95222.38;;;24.25;53.92
3968;BME280;9221;42.646;23.380;2022-09-06T08:22:41;95221.41;;;24.88;51.86
3968;BME280;9221;42.646;23.380;2022-09-06T08:25:07;95194.69;;;25.36;51.10
3968;BME280;9221;42.646;23.380;2022-09-06T08:27:32;95245.56;;;25.99;50.70
3968;BME280;9221;42.646;23.380;2022-09-06T08:29:58;95256.50;;;26.47;49.51
3968;BME280;9221;42.646;23.380;2022-09-06T08:32:24;95229.22;;;26.96;47.47
3968;BME280;9221;42.646;23.380;2022-09-06T08:34:49;95182.38;;;26.60;47.74
3968;BME280;9221;42.646;23.380;2022-09-06T08:37:14;95227.66;;;27.12;47.04
3968;BME280;9221;42.646;23.380;2022-09-06T08:39:40;95236.56;;;27.48;45.09
3968;BME280;9221;42.646;23.380;2022-09-06T08:42:06;95183.38;;;27.18;45.49
3968;BME280;9221;42.646;23.380;2022-09-06T08:44:39;95226.72;;;27.18;44.91
3968;BME280;9221;42.646;23.380;2022-09-06T08:47:14;95141.00;;;27.12;45.82
3968;BME280;9221;42.646;23.380;2022-09-06T08:49:54;95190.66;;;27.29;44.77
3968;BME280;9221;42.646;23.380;2022-09-06T08:55:24;95191.06;;;28.08;43.56
3968;BME280;9221;42.646;23.380;2022-09-06T09:00:37;95184.63;;;28.31;41.96
3968;BME280;9221;42.646;23.380;2022-09-06T09:03:07;95203.63;;;27.27;43.47
3968;BME280;9221;42.646;23.380;2022-09-06T09:05:37;95200.19;;;27.20;43.64
3968;BME280;9221;42.646;23.380;2022-09-06T09:10:46;95166.28;;;26.53;44.40
3968;BME280;9221;42.646;23.380;2022-09-06T09:13:21;95148.78;;;26.44;44.34
3968;BME280;9221;42.646;23.380;2022-09-06T09:15:49;95117.50;;;27.00;43.20
3968;BME280;9221;42.646;23.380;2022-09-06T09:18:19;95147.97;;;27.94;42.97
3968;BME280;9221;42.646;23.380;2022-09-06T09:20:46;95152.88;;;28.65;40.93
3968;BME280;9221;42.646;23.380;2022-09-06T09:23:11;95156.38;;;29.05;41.54
3968;BME280;9221;42.646;23.380;2022-09-06T09:25:38;95092.13;;;29.16;39.20
3968;BME280;9221;42.646;23.380;2022-09-06T09:28:11;95147.91;;;29.73;38.62
3968;BME280;9221;42.646;23.380;2022-09-06T09:30:55;95143.25;;;30.33;37.32
3968;BME280;9221;42.646;23.380;2022-09-06T09:33:35;95161.84;;;29.27;37.44
3968;BME280;9221;42.646;23.380;2022-09-06T09:36:11;95125.13;;;28.07;40.08
3968;BME280;9221;42.646;23.380;2022-09-06T09:38:45;95055.75;;;28.28;40.55
3968;BME280;9221;42.646;23.380;2022-09-06T09:41:32;95092.25;;;29.26;39.17
3968;BME280;9221;42.646;23.380;2022-09-06T09:44:03;95085.06;;;29.69;38.15
3968;BME280;9221;42.646;23.380;2022-09-06T09:46:34;95115.28;;;30.43;36.53
3968;BME280;9221;42.646;23.380;2022-09-06T09:51:30;95093.69;;;31.58;34.97
3968;BME280;9221;42.646;23.380;2022-09-06T09:53:58;95122.97;;;32.19;34.18
3968;BME280;9221;42.646;23.380;2022-09-06T09:58:53;95124.28;;;32.48;32.81
3968;BME280;9221;42.646;23.380;2022-09-06T10:01:26;95119.38;;;32.45;34.36
3968;BME280;9221;42.646;23.380;2022-09-06T10:03:59;95072.91;;;32.70;32.93
3968;BME280;9221;42.646;23.380;2022-09-06T10:06:26;95148.09;;;33.23;32.05
3968;BME280;9221;42.646;23.380;2022-09-06T10:08:51;95058.72;;;32.58;31.91
3968;BME280;9221;42.646;23.380;2022-09-06T10:11:37;95091.22;;;32.60;32.09
3968;BME280;9221;42.646;23.380;2022-09-06T10:16:47;95055.50;;;32.35;32.90
3968;BME280;9221;42.646;23.380;2022-09-06T10:19:22;95094.75;;;32.81;31.68
3968;BME280;9221;42.646;23.380;2022-09-06T10:21:50;95082.19;;;32.80;31.32
3968;BME280;9221;42.646;23.380;2022-09-06T10:24:33;95090.91;;;32.82;31.12
3968;BME280;9221;42.646;23.380;2022-09-06T10:27:02;95068.16;;;32.92;31.17
3968;BME280;9221;42.646;23.380;2022-09-06T10:35:23;95091.31;;;33.65;28.09
3968;BME280;9221;42.646;23.380;2022-09-06T10:43:05;95074.50;;;34.16;29.18
3968;BME280;9221;42.646;23.380;2022-09-06T10:50:55;95097.56;;;32.34;30.75
3968;BME280;9221;42.646;23.380;2022-09-06T10:56:09;95069.72;;;32.37;29.67
3968;BME280;9221;42.646;23.380;2022-09-06T10:58:40;95034.63;;;32.81;28.26
3968;BME280;9221;42.646;23.380;2022-09-06T11:01:16;95070.44;;;33.39;28.00
3968;BME280;9221;42.646;23.380;2022-09-06T11:03:44;95069.94;;;30.59;30.98
3968;BME280;9221;42.646;23.380;2022-09-06T11:06:11;95047.72;;;30.93;30.43
3968;BME280;9221;42.646;23.380;2022-09-06T11:08:45;95046.00;;;32.28;28.92
3968;BME280;9221;42.646;23.380;2022-09-06T11:11:27;95016.66;;;32.59;27.69
3968;BME280;9221;42.646;23.380;2022-09-06T11:13:54;95053.50;;;33.32;27.04
3968;BME280;9221;42.646;23.380;2022-09-06T11:16:31;95057.56;;;33.74;26.82
3968;BME280;9221;42.646;23.380;2022-09-06T11:19:16;95048.28;;;33.76;26.95
3968;BME280;9221;42.646;23.380;2022-09-06T11:29:48;95077.69;;;34.53;25.71
3968;BME280;9221;42.646;23.380;2022-09-06T11:34:56;95066.91;;;32.63;26.84
3968;BME280;9221;42.646;23.380;2022-09-06T11:37:30;95011.88;;;31.32;28.75
3968;BME280;9221;42.646;23.380;2022-09-06T11:40:24;95049.31;;;32.90;27.89
3968;BME280;9221;42.646;23.380;2022-09-06T11:48:49;95032.03;;;32.34;27.26
3968;BME280;9221;42.646;23.380;2022-09-06T11:51:32;95023.34;;;32.01;28.10
3968;BME280;9221;42.646;23.380;2022-09-06T11:59:06;94972.97;;;32.59;26.43
3968;BME280;9221;42.646;23.380;2022-09-06T12:01:37;95023.88;;;31.98;28.14
3968;BME280;9221;42.646;23.380;2022-09-06T12:04:05;94932.84;;;31.43;28.06
3968;BME280;9221;42.646;23.380;2022-09-06T12:06:40;95006.56;;;33.15;27.69
3968;BME280;9221;42.646;23.380;2022-09-06T12:09:26;95012.88;;;33.55;26.03
3968;BME280;9221;42.646;23.380;2022-09-06T12:11:51;94964.59;;;32.40;27.42
3968;BME280;9221;42.646;23.380;2022-09-06T12:19:59;94916.22;;;31.13;29.72
3968;BME280;9221;42.646;23.380;2022-09-06T12:28:03;95001.06;;;29.68;33.81
3968;BME280;9221;42.646;23.380;2022-09-06T12:33:08;94944.75;;;28.71;34.63
3968;BME280;9221;42.646;23.380;2022-09-06T12:35:35;95003.34;;;28.67;36.16
3968;BME280;9221;42.646;23.380;2022-09-06T12:38:03;94980.94;;;28.32;35.53
3968;BME280;9221;42.646;23.380;2022-09-06T12:40:31;94995.75;;;28.47;36.58
3968;BME280;9221;42.646;23.380;2022-09-06T12:42:58;95002.69;;;28.60;36.29
3968;BME280;9221;42.646;23.380;2022-09-06T12:45:24;94997.84;;;28.40;36.77
3968;BME280;9221;42.646;23.380;2022-09-06T12:48:02;95024.56;;;28.09;36.60
3968;BME280;9221;42.646;23.380;2022-09-06T12:50:28;94991.56;;;27.78;37.91
3968;BME280;9221;42.646;23.380;2022-09-06T12:52:57;94934.25;;;27.35;37.59
3968;BME280;9221;42.646;23.380;2022-09-06T12:55:30;94986.97;;;27.61;38.12
3968;BME280;9221;42.646;23.380;2022-09-06T12:57:58;94941.88;;;27.21;38.83
3968;BME280;9221;42.646;23.380;2022-09-06T13:00:29;94971.69;;;27.21;38.81
3968;BME280;9221;42.646;23.380;2022-09-06T13:03:37;94983.47;;;26.98;39.35
3968;BME280;9221;42.646;23.380;2022-09-06T13:06:05;94968.16;;;26.75;39.87
3968;BME280;9221;42.646;23.380;2022-09-06T13:11:02;94970.78;;;27.83;37.77
3968;BME280;9221;42.646;23.380;2022-09-06T13:13:32;94972.34;;;28.41;36.22
3968;BME280;9221;42.646;23.380;2022-09-06T13:15:57;94920.38;;;28.54;36.17
3968;BME280;9221;42.646;23.380;2022-09-06T13:18:37;94913.34;;;28.31;35.17
3968;BME280;9221;42.646;23.380;2022-09-06T13:21:05;94978.25;;;29.09;35.39
3968;BME280;9221;42.646;23.380;2022-09-06T13:23:41;95005.28;;;29.53;34.93
3968;BME280;9221;42.646;23.380;2022-09-06T13:26:08;94975.94;;;29.93;34.11
3968;BME280;9221;42.646;23.380;2022-09-06T13:28:34;94971.47;;;29.77;33.25
3968;BME280;9221;42.646;23.380;2022-09-06T13:31:20;94968.31;;;29.20;34.45
3968;BME280;9221;42.646;23.380;2022-09-06T13:34:06;94980.50;;;29.45;33.98
3968;BME280;9221;42.646;23.380;2022-09-06T13:36:32;94977.72;;;30.15;33.69
3968;BME280;9221;42.646;23.380;2022-09-06T13:38:58;94946.91;;;30.04;33.13
3968;BME280;9221;42.646;23.380;2022-09-06T13:44:05;94969.28;;;29.09;34.43
3968;BME280;9221;42.646;23.380;2022-09-06T13:46:32;94972.59;;;28.61;35.12
3968;BME280;9221;42.646;23.380;2022-09-06T13:48:59;94931.97;;;28.22;35.60
3968;BME280;9221;42.646;23.380;2022-09-06T13:51:24;94962.13;;;28.03;36.12
3968;BME280;9221;42.646;23.380;2022-09-06T13:54:07;94980.84;;;27.88;36.33
3968;BME280;9221;42.646;23.380;2022-09-06T13:56:33;94912.28;;;27.31;36.76
3968;BME280;9221;42.646;23.380;2022-09-06T13:58:59;94972.38;;;26.99;37.49
3968;BME280;9221;42.646;23.380;2022-09-06T14:01:25;94980.19;;;27.13;37.59
3968;BME280;9221;42.646;23.380;2022-09-06T14:03:51;94958.38;;;27.02;38.03
3968;BME280;9221;42.646;23.380;2022-09-06T14:06:17;94948.88;;;27.17;38.63
3968;BME280;9221;42.646;23.380;2022-09-06T14:08:42;94937.06;;;27.23;38.89
3968;BME280;9221;42.646;23.380;2022-09-06T14:11:08;94895.53;;;27.00;38.16
3968;BME280;9221;42.646;23.380;2022-09-06T14:13:33;94953.16;;;27.30;37.22
3968;BME280;9221;42.646;23.380;2022-09-06T14:15:59;94909.97;;;26.89;37.96
3968;BME280;9221;42.646;23.380;2022-09-06T14:18:24;94930.97;;;26.82;38.39
3968;BME280;9221;42.646;23.380;2022-09-06T14:20:52;94919.31;;;26.69;39.04
3968;BME280;9221;42.646;23.380;2022-09-06T14:23:18;94892.66;;;26.61;39.11
3968;BME280;9221;42.646;23.380;2022-09-06T14:25:44;94964.59;;;27.03;38.87
3968;BME280;9221;42.646;23.380;2022-09-06T14:28:09;94961.50;;;26.94;38.71
3968;BME280;9221;42.646;23.380;2022-09-06T14:30:34;94892.50;;;26.51;38.31
3968;BME280;9221;42.646;23.380;2022-09-06T14:33:02;94974.53;;;26.68;38.87
3968;BME280;9221;42.646;23.380;2022-09-06T14:35:30;94978.78;;;26.64;39.71
3968;BME280;9221;42.646;23.380;2022-09-06T14:37:56;94921.28;;;26.28;39.50
3968;BME280;9221;42.646;23.380;2022-09-06T14:40:21;94984.97;;;26.48;39.95
3968;BME280;9221;42.646;23.380;2022-09-06T14:42:47;94948.72;;;26.49;40.44
3968;BME280;9221;42.646;23.380;2022-09-06T14:45:12;94977.66;;;26.48;40.16
3968;BME280;9221;42.646;23.380;2022-09-06T14:47:38;94976.53;;;26.32;40.51
3968;BME280;9221;42.646;23.380;2022-09-06T14:50:03;94957.22;;;26.41;40.51
3968;BME280;9221;42.646;23.380;2022-09-06T14:52:29;94942.66;;;26.30;40.43
3968;BME280;9221;42.646;23.380;2022-09-06T14:54:54;94928.16;;;26.19;40.14
3968;BME280;9221;42.646;23.380;2022-09-06T14:57:20;94953.94;;;26.39;40.59
3968;BME280;9221;42.646;23.380;2022-09-06T14:59:45;94966.88;;;26.37;40.49
3968;BME280;9221;42.646;23.380;2022-09-06T15:02:11;94898.09;;;26.04;40.34
3968;BME280;9221;42.646;23.380;2022-09-06T15:04:36;94950.16;;;26.11;41.10
3968;BME280;9221;42.646;23.380;2022-09-06T15:07:02;94885.47;;;25.45;41.89
3968;BME280;9221;42.646;23.380;2022-09-06T15:09:28;94885.22;;;25.58;41.71